Norris Observed Data For Previous 48 Hours

Caption
Day and Hour Reservoir Elevation (behind dam)* Tailwater Elevation (below dam)* Average Hourly Discharge*
9/16/2018 2 AM EDT 1,016.21 822.35 281
9/16/2018 3 AM EDT 1,016.20 821.83 20
9/16/2018 4 AM EDT 1,016.18 821.62 20
9/16/2018 5 AM EDT 1,016.20 821.44 20
9/16/2018 6 AM EDT 1,016.20 821.27 20
9/16/2018 7 AM EDT 1,016.20 821.11 20
9/16/2018 8 AM EDT 1,016.20 820.96 20
9/16/2018 9 AM EDT 1,016.20 820.83 20
9/16/2018 10 AM EDT 1,016.19 821.88 98
9/16/2018 11 AM EDT 1,016.20 824.82 4,325
9/16/2018 12 PM EDT 1,016.19 825.05 4,334
9/16/2018 1 PM EDT 1,016.19 825.03 4,339
9/16/2018 2 PM EDT 1,016.18 824.99 4,339
9/16/2018 3 PM EDT 1,016.19 825.01 4,340
9/16/2018 4 PM EDT 1,016.17 825.14 4,337
9/16/2018 5 PM EDT 1,016.15 825.00 4,337
9/16/2018 6 PM EDT 1,016.15 825.01 4,335
9/16/2018 7 PM EDT 1,016.15 825.06 4,335
9/16/2018 8 PM EDT 1,016.15 825.07 4,331
9/16/2018 9 PM EDT 1,016.15 825.06 4,338
9/16/2018 10 PM EDT 1,016.14 824.98 4,335
9/16/2018 11 PM EDT 1,016.13 824.98 4,336
9/17/2018 12 AM EDT 1,016.11 825.00 4,333
9/17/2018 1 AM EDT 1,016.11 825.07 4,334
9/17/2018 2 AM EDT 1,016.11 825.04 4,335
9/17/2018 3 AM EDT 1,016.10 825.08 4,333
9/17/2018 4 AM EDT 1,016.09 825.06 4,328
9/17/2018 5 AM EDT 1,016.09 824.98 4,335
9/17/2018 6 AM EDT 1,016.07 825.10 4,333
9/17/2018 7 AM EDT 1,016.07 824.95 4,334
9/17/2018 8 AM EDT 1,016.07 825.00 4,333
9/17/2018 9 AM EDT 1,016.05 825.06 4,334
9/17/2018 10 AM EDT 1,016.05 825.06 4,337
9/17/2018 11 AM EDT 1,016.03 825.00 4,334
9/17/2018 12 PM EDT 1,016.03 825.05 4,328
9/17/2018 1 PM EDT 1,016.03 825.04 4,334
9/17/2018 2 PM EDT 1,016.01 825.00 4,333
9/17/2018 3 PM EDT 1,016.00 825.01 4,334
9/17/2018 4 PM EDT 1,016.00 825.02 4,334
9/17/2018 5 PM EDT 1,015.99 825.02 4,334
9/17/2018 6 PM EDT 1,015.99 825.05 4,337
9/17/2018 7 PM EDT 1,015.98 825.05 4,334
9/17/2018 8 PM EDT 1,015.98 825.03 4,328
9/17/2018 9 PM EDT 1,015.97 825.05 4,333
9/17/2018 10 PM EDT 1,015.97 825.05 4,332
9/17/2018 11 PM EDT 1,015.97 825.04 4,335
9/18/2018 12 AM EDT 1,015.95 824.96 4,334
9/18/2018 1 AM EDT 1,015.95 825.05 4,332
9/18/2018 2 AM EDT 1,015.95 825.05 4,332
9/18/2018 3 AM EDT 1,015.93 825.09 4,332
9/18/2018 4 AM EDT 1,015.93 825.00 4,324
9/18/2018 5 AM EDT 1,015.92 825.04 4,333
9/18/2018 6 AM EDT 1,015.91 825.02 4,331
9/18/2018 7 AM EDT 1,015.90 825.10 4,334
9/18/2018 8 AM EDT 1,015.90 825.04 4,333
9/18/2018 9 AM EDT 1,015.89 824.98 4,333

Elevations are in feet above sea level. Discharges are in cubic feet per second and are reported at the end of the hour.